首页
METAR-TAF:

METAR-TAF

机场 :

Fritzlar, 德国

纬度: 51-07N, 经度: 009-17E, 海拔: 172米

当前天气观测

该预报发布于1小时和4分钟前的18:20 UTC
风速13节,风向南转西南
温度 6°C
湿度 65%
气压 1025 hPa
能见度10公里或以上
少量云层高于4000英尺
散云层高于10000英尺

METAR: ETHF 211820Z 21013KT 9999 FEW040 SCT100 06/00 Q1025 BLU+

时间: 20:24 (19:24 UTC)

预报

该预报发布于11小时和17分钟前的08:07 UTC
预报有效从21日的 09点(UTC)到 21日的 18点(UTC)
风速12节,风向西南
能見度: 0900
散云层高于4000英尺

TAF: ETHF 210807Z 2109/2118 22012KT 9999 NSW SCT040 CANCEL 0900

超过4000个机场的气象观测和天气预报(METAR&TAF报告)。

可查询的气象台以黄色和红色小点在地图上表示。

将鼠标移到小点上方,可查看气象台名称。

然后点击查看天气观测和预报。

如需切换地图:点击带黑十字的绿色按钮放大地图;点击带横线的绿色按钮缩小地图;或者点击绿色箭头查看邻近地区的地图。


METAR-TAF: